Time;durP1;ratioP1;P1;durP2;ratioP2;P2;SDS_P1;SDS_P2;PMS_P1;PMS_P2;Temp;Humidity;BMP_temperature;BMP_pressure;BME280_temperature;BME280_humidity;BME280_pressure;Samples;Min_cycle;Max_cycle;Signal;HPM_P1;HPM_P2
2021/09/11 00:00:57;;;;;;;19.17;6.23;;;;;;;;;;10418436;28;20448;-89
2021/09/11 00:05:57;;;;;;;10.13;5.80;;;;;;;;;;10415196;28;20458;-89
2021/09/11 00:10:58;;;;;;;13.50;5.55;;;;;;;;;;10428453;28;20545;-88
2021/09/11 00:15:58;;;;;;;10.37;5.80;;;;;;;;;;10422196;28;20033;-89
2021/09/11 00:20:58;;;;;;;8.93;5.57;;;;;;;;;;10425014;28;20444;-88
2021/09/11 00:25:59;;;;;;;8.13;5.80;;;;;;;;;;10425210;28;20024;-91
2021/09/11 00:30:59;;;;;;;13.77;5.50;;;;;;;;;;10412775;28;20475;-91
2021/09/11 00:36:00;;;;;;;9.77;5.67;;;;;;;;;;10435364;28;20021;-86
2021/09/11 00:41:00;;;;;;;8.40;5.10;;;;;;;;;;10444118;28;20384;-88
2021/09/11 00:46:01;;;;;;;6.80;5.17;;;;;;;;;;10413106;28;20049;-88
2021/09/11 00:51:01;;;;;;;7.28;5.07;;;;;;;;;;10460084;28;20798;-87
2021/09/11 00:56:02;;;;;;;9.93;5.93;;;;;;;;;;10426394;28;20056;-90
2021/09/11 01:01:03;;;;;;;7.30;4.95;;;;;;;;;;10442724;28;20370;-88
2021/09/11 01:06:04;;;;;;;11.00;5.28;;;;;;;;;;10415066;28;20284;-87
2021/09/11 01:11:04;;;;;;;8.15;5.15;;;;;;;;;;10441693;28;20033;-89
2021/09/11 01:16:06;;;;;;;8.17;5.20;;;;;;;;;;10459771;28;20061;-87
2021/09/11 01:21:07;;;;;;;8.27;5.18;;;;;;;;;;10441980;28;20476;-87
2021/09/11 01:26:07;;;;;;;6.70;4.85;;;;;;;;;;10459398;28;20029;-87
2021/09/11 01:31:08;;;;;;;10.10;4.95;;;;;;;;;;10459061;28;20461;-90
2021/09/11 01:36:08;;;;;;;17.70;4.87;;;;;;;;;;10410537;28;20032;-87
2021/09/11 01:41:09;;;;;;;6.30;4.53;;;;;;;;;;10457249;28;20466;-87
2021/09/11 01:46:10;;;;;;;20.50;4.93;;;;;;;;;;10458095;28;20033;-85
2021/09/11 01:51:10;;;;;;;13.27;4.93;;;;;;;;;;10452735;28;20167;-85
2021/09/11 01:56:11;;;;;;;4.80;4.30;;;;;;;;;;10450015;28;20025;-87
2021/09/11 02:01:11;;;;;;;13.00;5.10;;;;;;;;;;10457978;28;20024;-86
2021/09/11 02:06:11;;;;;;;8.57;4.60;;;;;;;;;;10458022;28;20039;-87
2021/09/11 02:11:12;;;;;;;7.60;4.53;;;;;;;;;;10437266;28;20029;-87
2021/09/11 02:16:12;;;;;;;6.17;4.23;;;;;;;;;;10432041;28;20029;-87
2021/09/11 02:21:12;;;;;;;5.37;4.43;;;;;;;;;;10457498;28;20064;-88
2021/09/11 02:26:13;;;;;;;6.73;4.73;;;;;;;;;;10457063;28;20091;-87
2021/09/11 02:31:13;;;;;;;7.03;4.40;;;;;;;;;;10457145;28;20113;-87
2021/09/11 02:36:14;;;;;;;4.60;4.10;;;;;;;;;;10456886;28;20143;-86
2021/09/11 02:41:15;;;;;;;9.70;4.15;;;;;;;;;;10425266;28;20063;-87
2021/09/11 02:46:15;;;;;;;6.22;4.15;;;;;;;;;;10440915;28;20037;-87
2021/09/11 02:51:16;;;;;;;5.53;4.13;;;;;;;;;;10458592;28;20072;-87
2021/09/11 02:56:16;;;;;;;6.68;4.25;;;;;;;;;;10457164;28;20491;-88
2021/09/11 03:01:17;;;;;;;8.00;4.03;;;;;;;;;;10423026;28;20025;-87
2021/09/11 03:06:17;;;;;;;7.60;4.30;;;;;;;;;;10465981;28;20025;-87
2021/09/11 03:11:18;;;;;;;4.73;3.80;;;;;;;;;;10441911;28;20029;-86
2021/09/11 03:16:18;;;;;;;5.47;3.97;;;;;;;;;;10455397;28;20450;-86
2021/09/11 03:21:19;;;;;;;4.17;3.70;;;;;;;;;;10455832;28;20392;-86
2021/09/11 03:26:19;;;;;;;5.15;3.72;;;;;;;;;;10456141;28;20075;-86
2021/09/11 03:31:19;;;;;;;15.63;4.23;;;;;;;;;;10437560;28;20040;-87
2021/09/11 03:36:20;;;;;;;10.23;3.93;;;;;;;;;;10455636;28;20045;-88
2021/09/11 03:41:20;;;;;;;4.50;3.43;;;;;;;;;;10455436;28;20870;-86
2021/09/11 03:46:21;;;;;;;6.70;3.70;;;;;;;;;;10454886;28;20388;-85
2021/09/11 03:51:21;;;;;;;5.50;4.05;;;;;;;;;;10455141;28;20079;-85
2021/09/11 03:56:21;;;;;;;6.37;3.97;;;;;;;;;;10455029;28;20021;-85
2021/09/11 04:01:22;;;;;;;7.63;4.03;;;;;;;;;;10455384;28;20053;-85
2021/09/11 04:06:22;;;;;;;5.80;3.50;;;;;;;;;;10460688;28;20024;-84
2021/09/11 04:11:23;;;;;;;6.50;4.10;;;;;;;;;;10462378;28;20028;-86
2021/09/11 04:16:23;;;;;;;4.27;3.37;;;;;;;;;;10461765;28;20060;-86
2021/09/11 04:21:23;;;;;;;4.37;3.50;;;;;;;;;;10462153;28;20790;-86
2021/09/11 04:26:24;;;;;;;5.50;3.90;;;;;;;;;;10448363;28;20102;-86
2021/09/11 04:31:24;;;;;;;5.73;3.27;;;;;;;;;;10460990;28;20025;-85
2021/09/11 04:36:25;;;;;;;4.25;3.25;;;;;;;;;;10461373;28;20450;-84
2021/09/11 04:41:25;;;;;;;6.10;3.50;;;;;;;;;;10461036;28;20550;-87
2021/09/11 04:46:25;;;;;;;6.10;3.50;;;;;;;;;;10442792;28;20442;-87
2021/09/11 04:51:26;;;;;;;6.87;3.27;;;;;;;;;;10461573;28;20507;-86
2021/09/11 04:56:26;;;;;;;5.00;3.53;;;;;;;;;;10460599;28;20376;-86
2021/09/11 05:01:26;;;;;;;5.63;3.20;;;;;;;;;;10460434;28;20185;-86
2021/09/11 05:06:27;;;;;;;7.07;3.27;;;;;;;;;;10442581;28;20800;-86
2021/09/11 05:11:27;;;;;;;3.43;3.13;;;;;;;;;;10459454;28;20392;-87
2021/09/11 05:16:28;;;;;;;5.13;3.53;;;;;;;;;;10464666;28;20483;-87
2021/09/11 05:21:28;;;;;;;6.23;3.30;;;;;;;;;;10459622;28;20482;-87
2021/09/11 05:26:29;;;;;;;4.70;3.47;;;;;;;;;;10459862;28;20438;-86
2021/09/11 05:31:29;;;;;;;4.78;3.17;;;;;;;;;;10427089;28;20037;-86
2021/09/11 05:36:30;;;;;;;7.63;3.25;;;;;;;;;;10445084;28;20121;-85
2021/09/11 05:41:30;;;;;;;4.00;3.00;;;;;;;;;;10458174;28;20136;-84
2021/09/11 05:46:30;;;;;;;5.47;3.20;;;;;;;;;;10455841;28;20033;-89
2021/09/11 05:51:31;;;;;;;5.80;3.10;;;;;;;;;;10458665;28;20056;-89
2021/09/11 05:56:31;;;;;;;10.10;3.43;;;;;;;;;;10457088;28;20481;-84
2021/09/11 06:01:32;;;;;;;7.80;2.80;;;;;;;;;;10452025;28;20929;-85
2021/09/11 06:06:32;;;;;;;4.85;2.85;;;;;;;;;;10457641;28;20428;-85
2021/09/11 06:11:33;;;;;;;3.45;3.00;;;;;;;;;;10457507;28;20017;-85
2021/09/11 06:16:33;;;;;;;7.83;3.07;;;;;;;;;;10457017;28;20028;-83
2021/09/11 06:21:34;;;;;;;3.55;2.92;;;;;;;;;;10457610;28;21714;-89
2021/09/11 06:26:34;;;;;;;5.20;3.00;;;;;;;;;;10456407;28;20515;-88
2021/09/11 06:31:35;;;;;;;9.27;3.17;;;;;;;;;;10460674;28;20060;-85
2021/09/11 06:36:35;;;;;;;6.10;3.47;;;;;;;;;;10463216;28;20029;-86
2021/09/11 06:41:35;;;;;;;8.37;3.10;;;;;;;;;;10458104;28;20071;-85
2021/09/11 06:46:36;;;;;;;14.23;3.30;;;;;;;;;;10455855;28;20446;-85
2021/09/11 06:51:36;;;;;;;10.00;2.90;;;;;;;;;;10455773;28;20029;-85
2021/09/11 06:56:37;;;;;;;20.10;3.77;;;;;;;;;;10454546;28;20805;-84
2021/09/11 07:01:38;;;;;;;12.20;3.67;;;;;;;;;;10456186;28;20025;-85
2021/09/11 07:06:38;;;;;;;17.15;3.72;;;;;;;;;;10456091;28;20376;-89
2021/09/11 07:11:39;;;;;;;13.60;6.38;;;;;;;;;;10432010;28;20061;-89
2021/09/11 07:16:39;;;;;;;17.20;7.25;;;;;;;;;;10409017;28;20041;-92
2021/09/11 07:21:40;;;;;;;14.87;6.80;;;;;;;;;;10422917;28;20190;-88
2021/09/11 07:26:41;;;;;;;11.07;6.30;;;;;;;;;;10438203;28;20540;-90
2021/09/11 07:31:46;;;;;;;14.43;6.63;;;;;;;;;;10422184;28;20075;-88
2021/09/11 07:42:48;;;;;;;13.35;6.57;;;;;;;;;;10477210;23;20046;-80
2021/09/11 07:47:48;;;;;;;10.27;6.40;;;;;;;;;;10467634;28;20075;-79
2021/09/11 07:52:49;;;;;;;8.00;7.13;;;;;;;;;;10462337;28;20462;-79
2021/09/11 07:57:49;;;;;;;13.50;6.97;;;;;;;;;;10443780;28;20056;-80
2021/09/11 08:02:50;;;;;;;11.32;6.95;;;;;;;;;;10476292;28;20021;-80
2021/09/11 08:07:50;;;;;;;11.13;6.47;;;;;;;;;;10461999;28;20411;-82
2021/09/11 08:12:50;;;;;;;12.10;6.00;;;;;;;;;;10454756;28;20029;-84
2021/09/11 08:17:51;;;;;;;11.50;6.73;;;;;;;;;;10464991;28;20988;-83
2021/09/11 08:22:51;;;;;;;13.77;6.70;;;;;;;;;;10464159;28;20445;-85
2021/09/11 08:27:52;;;;;;;12.93;5.93;;;;;;;;;;10460830;28;20036;-85
2021/09/11 08:32:52;;;;;;;9.30;5.63;;;;;;;;;;10463588;28;20025;-84
2021/09/11 08:37:52;;;;;;;6.87;5.27;;;;;;;;;;10462882;28;20036;-84
2021/09/11 08:42:53;;;;;;;12.53;5.67;;;;;;;;;;10463799;28;20423;-83
2021/09/11 08:47:54;;;;;;;13.02;7.25;;;;;;;;;;10444576;28;20060;-84
2021/09/11 08:52:55;;;;;;;13.27;5.68;;;;;;;;;;10455777;28;20028;-83
2021/09/11 08:58:06;;;;;;;12.80;5.27;;;;;;;;;;10471038;28;20036;-82
2021/09/11 09:03:30;;;;;;;6.43;4.65;;;;;;;;;;10460356;28;20028;-82
2021/09/11 09:08:31;;;;;;;8.68;5.28;;;;;;;;;;10459660;28;20033;-82
2021/09/11 09:13:48;;;;;;;6.33;4.70;;;;;;;;;;10462287;28;20033;-82
2021/09/11 09:18:49;;;;;;;7.93;5.20;;;;;;;;;;10462540;28;20028;-82
2021/09/11 09:23:54;;;;;;;8.35;4.60;;;;;;;;;;10464800;28;20064;-82
2021/09/11 09:29:03;;;;;;;6.60;4.28;;;;;;;;;;10472011;28;20025;-82
2021/09/11 09:34:05;;;;;;;5.95;4.50;;;;;;;;;;10468158;28;20024;-83
2021/09/11 09:39:11;;;;;;;9.10;4.30;;;;;;;;;;10468421;28;20060;-83
2021/09/11 09:44:13;;;;;;;7.20;4.47;;;;;;;;;;10471003;28;20570;-83
2021/09/11 09:49:24;;;;;;;5.80;4.57;;;;;;;;;;10457714;28;20029;-81
2021/09/11 09:54:25;;;;;;;5.68;4.13;;;;;;;;;;10472450;28;20372;-82
2021/09/11 09:59:25;;;;;;;5.97;4.32;;;;;;;;;;10450218;28;20018;-81
2021/09/11 10:04:26;;;;;;;5.40;4.43;;;;;;;;;;10445802;28;20377;-81
2021/09/11 10:09:27;;;;;;;6.17;4.43;;;;;;;;;;10444461;28;20457;-81
2021/09/11 10:14:33;;;;;;;8.82;4.30;;;;;;;;;;10470041;28;20354;-81
2021/09/11 10:19:42;;;;;;;7.05;3.65;;;;;;;;;;10459744;28;20079;-82
2021/09/11 10:24:47;;;;;;;8.60;4.38;;;;;;;;;;10471180;28;20055;-82
2021/09/11 10:29:53;;;;;;;6.72;4.43;;;;;;;;;;10452619;28;20036;-83
2021/09/11 10:35:09;;;;;;;5.82;4.18;;;;;;;;;;10456487;28;20116;-82
2021/09/11 10:40:24;;;;;;;6.25;4.10;;;;;;;;;;10456100;28;20388;-82
2021/09/11 10:45:40;;;;;;;5.40;3.88;;;;;;;;;;10457754;28;20079;-81
2021/09/11 10:50:40;;;;;;;5.55;4.03;;;;;;;;;;10452870;28;20083;-80
2021/09/11 10:55:40;;;;;;;7.33;4.17;;;;;;;;;;10459382;28;20465;-80
2021/09/11 11:00:58;;;;;;;6.47;4.43;;;;;;;;;;10453113;28;20449;-80
2021/09/11 11:06:02;;;;;;;10.27;6.73;;;;;;;;;;10450547;28;20027;-80
2021/09/11 11:11:05;;;;;;;11.90;6.90;;;;;;;;;;10435034;28;20033;-80
2021/09/11 11:16:05;;;;;;;13.23;6.57;;;;;;;;;;10452393;28;20464;-80
2021/09/11 11:21:05;;;;;;;11.10;5.90;;;;;;;;;;10455153;28;20040;-80
2021/09/11 11:26:06;;;;;;;14.07;6.30;;;;;;;;;;10466506;28;20029;-80
2021/09/11 11:31:06;;;;;;;13.93;6.27;;;;;;;;;;10450668;28;20033;-80
2021/09/11 11:36:07;;;;;;;11.53;6.23;;;;;;;;;;10448968;28;20037;-80
2021/09/11 11:41:07;;;;;;;6.97;4.90;;;;;;;;;;10454582;28;20040;-80
2021/09/11 11:46:08;;;;;;;10.87;5.50;;;;;;;;;;10457171;28;20052;-80
2021/09/11 11:51:12;;;;;;;9.67;5.67;;;;;;;;;;10453084;28;20454;-80
2021/09/11 11:56:13;;;;;;;10.95;5.70;;;;;;;;;;10443265;28;20450;-80
2021/09/11 12:01:28;;;;;;;6.00;4.60;;;;;;;;;;10461483;28;20025;-81
2021/09/11 12:06:29;;;;;;;8.85;4.93;;;;;;;;;;10458147;28;20479;-83
2021/09/11 12:11:29;;;;;;;14.85;5.13;;;;;;;;;;10457387;28;20021;-81
2021/09/11 12:16:31;;;;;;;11.65;5.18;;;;;;;;;;10456516;28;20029;-80
2021/09/11 12:21:33;;;;;;;13.35;5.32;;;;;;;;;;10456154;28;20055;-81
2021/09/11 12:26:36;;;;;;;15.70;5.13;;;;;;;;;;10463881;28;20373;-81
2021/09/11 12:31:40;;;;;;;18.25;4.88;;;;;;;;;;10469789;28;20041;-81
2021/09/11 12:37:04;;;;;;;20.65;5.22;;;;;;;;;;10457435;28;20048;-80
2021/09/11 12:42:12;;;;;;;10.75;4.75;;;;;;;;;;10468046;28;20544;-83
2021/09/11 12:47:13;;;;;;;12.10;4.70;;;;;;;;;;10461432;28;20065;-81
2021/09/11 12:52:13;;;;;;;11.88;4.65;;;;;;;;;;10467762;28;20033;-80
2021/09/11 12:57:14;;;;;;;13.48;4.60;;;;;;;;;;10467814;28;20031;-81
2021/09/11 13:02:14;;;;;;;7.60;4.50;;;;;;;;;;10472354;28;20079;-80
2021/09/11 13:07:14;;;;;;;10.80;4.60;;;;;;;;;;10462206;28;20025;-79
2021/09/11 13:12:17;;;;;;;7.90;4.57;;;;;;;;;;10468513;28;20575;-80
2021/09/11 13:17:18;;;;;;;14.32;5.43;;;;;;;;;;10459631;28;20041;-82
2021/09/11 13:22:18;;;;;;;9.73;4.60;;;;;;;;;;10443365;28;20116;-80
2021/09/11 13:27:19;;;;;;;8.95;4.93;;;;;;;;;;10456520;28;20048;-80
2021/09/11 13:32:19;;;;;;;11.90;4.67;;;;;;;;;;10454164;28;20068;-79
2021/09/11 13:37:20;;;;;;;15.98;4.55;;;;;;;;;;10441502;28;20108;-79
2021/09/11 13:42:20;;;;;;;9.55;4.18;;;;;;;;;;10457068;28;20167;-80
2021/09/11 13:47:20;;;;;;;6.37;4.33;;;;;;;;;;10456383;28;20052;-82
2021/09/11 13:52:21;;;;;;;8.43;4.40;;;;;;;;;;10456372;28;20489;-80
2021/09/11 13:57:21;;;;;;;5.70;4.13;;;;;;;;;;10471977;28;20521;-81
2021/09/11 14:02:21;;;;;;;6.77;5.13;;;;;;;;;;10457399;28;20037;-80
2021/09/11 14:07:22;;;;;;;6.97;4.27;;;;;;;;;;10470110;28;20021;-83
2021/09/11 14:12:22;;;;;;;10.05;4.78;;;;;;;;;;10449756;28;20492;-82
2021/09/11 14:17:23;;;;;;;9.17;4.73;;;;;;;;;;10458804;28;20067;-82
2021/09/11 14:22:23;;;;;;;7.57;4.87;;;;;;;;;;10459239;28;20032;-81
2021/09/11 14:27:24;;;;;;;6.30;4.55;;;;;;;;;;10455870;28;20563;-81
2021/09/11 14:32:24;;;;;;;12.43;4.73;;;;;;;;;;10447049;28;20031;-82
2021/09/11 14:37:25;;;;;;;12.60;4.60;;;;;;;;;;10460636;28;20501;-81
2021/09/11 14:42:29;;;;;;;8.02;4.53;;;;;;;;;;10455201;28;20041;-80
2021/09/11 14:47:33;;;;;;;7.68;4.35;;;;;;;;;;10440906;28;20500;-80
2021/09/11 14:52:34;;;;;;;11.20;5.07;;;;;;;;;;10445812;28;20039;-82
2021/09/11 14:57:35;;;;;;;6.72;4.30;;;;;;;;;;10466326;28;20039;-81
2021/09/11 15:02:35;;;;;;;9.82;4.90;;;;;;;;;;10453343;28;20037;-81
2021/09/11 15:07:36;;;;;;;9.37;4.50;;;;;;;;;;10443604;28;20034;-82
2021/09/11 15:12:36;;;;;;;6.55;4.10;;;;;;;;;;10469869;28;20087;-81
2021/09/11 15:17:37;;;;;;;7.27;4.70;;;;;;;;;;10469667;28;20037;-81
2021/09/11 15:22:39;;;;;;;5.45;4.55;;;;;;;;;;10469232;28;20378;-81
2021/09/11 15:27:40;;;;;;;12.43;5.03;;;;;;;;;;10468623;28;20027;-80
2021/09/11 15:32:42;;;;;;;5.25;4.40;;;;;;;;;;10469165;28;20465;-81
2021/09/11 15:37:43;;;;;;;9.48;4.80;;;;;;;;;;10441564;28;20029;-80
2021/09/11 15:42:43;;;;;;;7.80;4.70;;;;;;;;;;10469042;28;20440;-81
2021/09/11 15:47:44;;;;;;;8.30;4.77;;;;;;;;;;10468339;28;20040;-81
2021/09/11 15:52:44;;;;;;;7.55;4.47;;;;;;;;;;10455218;28;20103;-81
2021/09/11 15:57:45;;;;;;;11.48;4.65;;;;;;;;;;10454985;28;20476;-79
2021/09/11 16:02:45;;;;;;;8.53;4.90;;;;;;;;;;10457562;28;20480;-83
2021/09/11 16:07:48;;;;;;;5.50;4.30;;;;;;;;;;10464245;28;20025;-83
2021/09/11 16:12:48;;;;;;;9.05;4.80;;;;;;;;;;10472499;28;20033;-83
2021/09/11 16:17:52;;;;;;;7.37;4.43;;;;;;;;;;10461016;28;20164;-82
2021/09/11 16:22:52;;;;;;;11.65;5.10;;;;;;;;;;10474044;28;20438;-83
2021/09/11 16:27:53;;;;;;;8.17;4.87;;;;;;;;;;10474667;28;20033;-81
2021/09/11 16:32:53;;;;;;;5.47;4.70;;;;;;;;;;10462769;28;20384;-82
2021/09/11 16:37:54;;;;;;;6.40;4.85;;;;;;;;;;10448124;28;20083;-82
2021/09/11 16:42:54;;;;;;;8.90;4.43;;;;;;;;;;10440469;28;20084;-81
2021/09/11 16:47:55;;;;;;;4.97;4.47;;;;;;;;;;10460880;28;20370;-83
2021/09/11 16:52:55;;;;;;;8.32;4.88;;;;;;;;;;10460614;28;20510;-82
2021/09/11 16:57:55;;;;;;;10.33;4.97;;;;;;;;;;10474252;28;20037;-83
2021/09/11 17:02:56;;;;;;;8.23;5.20;;;;;;;;;;10474237;28;20048;-83
2021/09/11 17:07:58;;;;;;;8.32;4.80;;;;;;;;;;10460235;28;20017;-83
2021/09/11 17:12:59;;;;;;;6.57;5.38;;;;;;;;;;10473176;28;20036;-83
2021/09/11 17:17:59;;;;;;;6.28;4.57;;;;;;;;;;10473046;28;20041;-81
2021/09/11 17:22:59;;;;;;;7.93;4.87;;;;;;;;;;10472650;28;20085;-80
2021/09/11 17:28:02;;;;;;;7.07;5.22;;;;;;;;;;10472431;28;20368;-81
2021/09/11 17:33:03;;;;;;;13.07;5.43;;;;;;;;;;10459747;28;20075;-86
2021/09/11 17:38:03;;;;;;;11.30;5.28;;;;;;;;;;10455074;28;20090;-81
2021/09/11 17:43:04;;;;;;;10.38;5.57;;;;;;;;;;10447606;28;20067;-83
2021/09/11 17:48:05;;;;;;;22.35;5.72;;;;;;;;;;10465495;28;20067;-83
2021/09/11 17:53:06;;;;;;;9.57;5.40;;;;;;;;;;10457348;28;20053;-81
2021/09/11 17:58:06;;;;;;;16.67;5.93;;;;;;;;;;10448945;28;20037;-81
2021/09/11 18:03:07;;;;;;;8.27;5.13;;;;;;;;;;10471178;28;20458;-81
2021/09/11 18:08:08;;;;;;;11.20;5.45;;;;;;;;;;10449757;28;20143;-81
2021/09/11 18:13:08;;;;;;;13.13;5.65;;;;;;;;;;10442466;28;20058;-81
2021/09/11 18:18:09;;;;;;;15.73;5.30;;;;;;;;;;10456910;28;20036;-81
2021/09/11 18:23:09;;;;;;;8.63;5.85;;;;;;;;;;10444958;28;20449;-81
2021/09/11 18:28:10;;;;;;;13.33;5.63;;;;;;;;;;10461115;28;20070;-81
2021/09/11 18:33:10;;;;;;;7.87;5.23;;;;;;;;;;10457872;28;20437;-81
2021/09/11 18:38:11;;;;;;;9.13;5.63;;;;;;;;;;10463183;28;20024;-81
2021/09/11 18:43:12;;;;;;;9.67;5.17;;;;;;;;;;10451897;28;20049;-80
2021/09/11 18:48:15;;;;;;;9.98;5.28;;;;;;;;;;10469716;28;20045;-81
2021/09/11 18:53:17;;;;;;;8.93;5.20;;;;;;;;;;10461141;28;20036;-81
2021/09/11 18:58:18;;;;;;;11.88;5.70;;;;;;;;;;10463924;28;20032;-81
2021/09/11 19:03:18;;;;;;;10.52;5.20;;;;;;;;;;10461898;28;20040;-81
2021/09/11 19:08:20;;;;;;;10.07;4.77;;;;;;;;;;10455757;28;20041;-80
2021/09/11 19:13:20;;;;;;;6.80;4.85;;;;;;;;;;10444040;28;20513;-81
2021/09/11 19:18:21;;;;;;;9.30;5.25;;;;;;;;;;10469742;28;20057;-81
2021/09/11 19:23:22;;;;;;;8.82;5.25;;;;;;;;;;10469027;28;20079;-81
2021/09/11 19:28:23;;;;;;;12.15;5.60;;;;;;;;;;10454880;28;20111;-81
2021/09/11 19:33:23;;;;;;;12.17;5.03;;;;;;;;;;10455908;28;20059;-81
2021/09/11 19:38:24;;;;;;;10.97;5.60;;;;;;;;;;10476988;28;20445;-81
2021/09/11 19:43:24;;;;;;;6.67;4.73;;;;;;;;;;10504917;23;20097;-80
2021/09/11 19:48:24;;;;;;;10.20;5.27;;;;;;;;;;10387689;28;20030;-80
2021/09/11 19:53:26;;;;;;;15.40;5.80;;;;;;;;;;10387988;28;20030;-80
2021/09/11 19:58:28;;;;;;;10.65;5.10;;;;;;;;;;10387637;28;20030;-80
2021/09/11 20:03:28;;;;;;;10.40;5.18;;;;;;;;;;10387355;28;20022;-80
2021/09/11 20:08:29;;;;;;;10.63;5.57;;;;;;;;;;10387760;28;20026;-80
2021/09/11 20:13:30;;;;;;;9.02;5.40;;;;;;;;;;10387542;28;20469;-79
2021/09/11 20:18:30;;;;;;;12.02;5.22;;;;;;;;;;10387276;28;20117;-80
2021/09/11 20:23:31;;;;;;;8.50;4.67;;;;;;;;;;10386935;28;20025;-80
2021/09/11 20:28:31;;;;;;;9.23;5.10;;;;;;;;;;10400862;28;20474;-80
2021/09/11 20:33:32;;;;;;;7.28;4.65;;;;;;;;;;10428653;28;20444;-80
2021/09/11 20:38:35;;;;;;;7.32;5.35;;;;;;;;;;10382697;28;20034;-79
2021/09/11 20:43:35;;;;;;;8.35;5.00;;;;;;;;;;10372644;28;20106;-79
2021/09/11 20:48:36;;;;;;;10.18;4.90;;;;;;;;;;10385666;28;20113;-79
2021/09/11 20:53:37;;;;;;;11.77;5.33;;;;;;;;;;10385726;28;20029;-80
2021/09/11 20:58:38;;;;;;;9.70;5.28;;;;;;;;;;10385386;28;20109;-80
2021/09/11 21:03:39;;;;;;;7.85;5.40;;;;;;;;;;10385328;28;20109;-80
2021/09/11 21:08:39;;;;;;;10.13;4.88;;;;;;;;;;10385764;28;20033;-80
2021/09/11 21:13:40;;;;;;;6.97;4.45;;;;;;;;;;10385444;28;20018;-80
2021/09/11 21:18:40;;;;;;;10.53;4.90;;;;;;;;;;10384794;28;20030;-80
2021/09/11 21:23:40;;;;;;;6.43;4.20;;;;;;;;;;10384383;28;20030;-80
2021/09/11 21:28:41;;;;;;;7.73;5.00;;;;;;;;;;10384192;28;20109;-80
2021/09/11 21:33:41;;;;;;;7.25;4.70;;;;;;;;;;10384328;28;20105;-80
2021/09/11 21:38:42;;;;;;;8.65;4.88;;;;;;;;;;10383380;28;20029;-80
2021/09/11 21:43:42;;;;;;;7.17;4.83;;;;;;;;;;10383902;28;20042;-80
2021/09/11 21:48:43;;;;;;;6.93;5.15;;;;;;;;;;10383005;28;20041;-80
2021/09/11 21:53:43;;;;;;;6.77;4.97;;;;;;;;;;10373590;28;20513;-81
2021/09/11 21:58:44;;;;;;;8.73;5.32;;;;;;;;;;10382376;28;20087;-80
2021/09/11 22:03:46;;;;;;;10.10;4.90;;;;;;;;;;10378302;28;20033;-80
2021/09/11 22:08:47;;;;;;;7.22;4.68;;;;;;;;;;10385278;28;20875;-85
2021/09/11 22:13:47;;;;;;;5.95;4.28;;;;;;;;;;10388429;28;20061;-85
2021/09/11 22:18:48;;;;;;;6.33;4.80;;;;;;;;;;10382585;28;20037;-86
2021/09/11 22:23:48;;;;;;;6.90;4.60;;;;;;;;;;10388324;28;20030;-86
2021/09/11 22:28:49;;;;;;;6.83;4.90;;;;;;;;;;10379925;28;20086;-87
2021/09/11 22:33:49;;;;;;;9.37;5.47;;;;;;;;;;10387820;28;20459;-87
2021/09/11 22:38:50;;;;;;;5.87;4.90;;;;;;;;;;10370524;28;20042;-87
2021/09/11 22:43:51;;;;;;;8.48;4.82;;;;;;;;;;10355209;28;20480;-84
2021/09/11 22:48:51;;;;;;;5.90;5.00;;;;;;;;;;10346987;28;20093;-85
2021/09/11 22:53:51;;;;;;;5.30;4.40;;;;;;;;;;10347592;28;20031;-85
2021/09/11 22:58:52;;;;;;;10.20;5.20;;;;;;;;;;10342213;28;20390;-85
2021/09/11 23:03:52;;;;;;;6.67;4.90;;;;;;;;;;10347447;28;20521;-86
2021/09/11 23:08:52;;;;;;;10.83;5.50;;;;;;;;;;10371392;28;20044;-86
2021/09/11 23:13:53;;;;;;;8.33;5.20;;;;;;;;;;10346119;28;20118;-85
2021/09/11 23:18:53;;;;;;;5.07;4.47;;;;;;;;;;10359701;28;20022;-85
2021/09/11 23:23:53;;;;;;;7.37;5.13;;;;;;;;;;10345845;28;20022;-86
2021/09/11 23:28:54;;;;;;;7.20;4.93;;;;;;;;;;10345271;28;20019;-86
2021/09/11 23:33:54;;;;;;;5.33;4.80;;;;;;;;;;10328614;28;20445;-90
2021/09/11 23:38:55;;;;;;;8.73;5.23;;;;;;;;;;10346016;28;20042;-91
2021/09/11 23:43:55;;;;;;;7.43;4.50;;;;;;;;;;10347930;28;20459;-87
2021/09/11 23:48:55;;;;;;;9.97;4.97;;;;;;;;;;10358645;28;20444;-88
2021/09/11 23:53:56;;;;;;;9.23;5.10;;;;;;;;;;10355372;28;20030;-84
2021/09/11 23:58:56;;;;;;;8.07;5.32;;;;;;;;;;10371833;28;20444;-84
